sensor_id;sensor_type;location;lat;lon;timestamp;pressure;altitude;pressure_sealevel;temperature;humidity
75188;BME280;63762;51.334;22.108;2023-04-07T00:02:32;101432.10;;;4.55;89.41
75188;BME280;63762;51.334;22.108;2023-04-07T00:12:39;101437.43;;;4.55;89.32
75188;BME280;63762;51.334;22.108;2023-04-07T00:22:47;101424.71;;;4.62;89.46
75188;BME280;63762;51.334;22.108;2023-04-07T00:32:53;101415.09;;;4.58;89.75
75188;BME280;63762;51.334;22.108;2023-04-07T00:43:00;101416.52;;;4.67;89.78
75188;BME280;63762;51.334;22.108;2023-04-07T00:53:07;101408.02;;;4.77;89.54
75188;BME280;63762;51.334;22.108;2023-04-07T01:13:33;101393.98;;;4.74;90.13
75188;BME280;63762;51.334;22.108;2023-04-07T01:33:52;101388.89;;;4.88;89.96
75188;BME280;63762;51.334;22.108;2023-04-07T01:43:55;101395.87;;;4.90;90.46
75188;BME280;63762;51.334;22.108;2023-04-07T01:53:58;101385.80;;;4.97;90.36
75188;BME280;63762;51.334;22.108;2023-04-07T02:14:13;101388.69;;;5.11;91.06
75188;BME280;63762;51.334;22.108;2023-04-07T02:24:20;101384.79;;;5.18;90.91
75188;BME280;63762;51.334;22.108;2023-04-07T02:34:21;101379.16;;;5.24;90.65
75188;BME280;63762;51.334;22.108;2023-04-07T02:44:26;101380.26;;;5.20;91.09
75188;BME280;63762;51.334;22.108;2023-04-07T02:54:33;101380.31;;;5.37;90.99
75188;BME280;63762;51.334;22.108;2023-04-07T03:04:41;101378.45;;;5.39;91.34
75188;BME280;63762;51.334;22.108;2023-04-07T03:14:47;101372.98;;;5.42;91.22
75188;BME280;63762;51.334;22.108;2023-04-07T03:24:55;101380.90;;;5.43;91.34
75188;BME280;63762;51.334;22.108;2023-04-07T03:35:02;101380.46;;;5.52;91.51
75188;BME280;63762;51.334;22.108;2023-04-07T03:45:09;101398.60;;;5.63;91.37
75188;BME280;63762;51.334;22.108;2023-04-07T03:55:16;101380.86;;;5.62;91.48
75188;BME280;63762;51.334;22.108;2023-04-07T04:05:23;101388.65;;;5.66;91.28
75188;BME280;63762;51.334;22.108;2023-04-07T04:15:30;101383.71;;;5.76;91.02
75188;BME280;63762;51.334;22.108;2023-04-07T04:25:38;101381.58;;;5.84;91.07
75188;BME280;63762;51.334;22.108;2023-04-07T04:35:45;101390.70;;;5.97;91.03
75188;BME280;63762;51.334;22.108;2023-04-07T04:45:51;101382.23;;;6.06;91.19
75188;BME280;63762;51.334;22.108;2023-04-07T04:55:59;101388.69;;;6.19;91.46
75188;BME280;63762;51.334;22.108;2023-04-07T05:06:06;101389.47;;;6.38;91.06
75188;BME280;63762;51.334;22.108;2023-04-07T05:16:13;101403.13;;;6.49;91.23
75188;BME280;63762;51.334;22.108;2023-04-07T05:26:21;101398.70;;;6.65;91.22
75188;BME280;63762;51.334;22.108;2023-04-07T05:36:27;101394.10;;;6.84;91.24
75188;BME280;63762;51.334;22.108;2023-04-07T05:46:34;101385.87;;;7.04;91.41
75188;BME280;63762;51.334;22.108;2023-04-07T05:56:41;101391.77;;;7.26;91.37
75188;BME280;63762;51.334;22.108;2023-04-07T06:06:49;101389.63;;;7.48;91.51
75188;BME280;63762;51.334;22.108;2023-04-07T06:16:56;101394.71;;;7.68;91.35
75188;BME280;63762;51.334;22.108;2023-04-07T06:27:04;101400.92;;;7.84;91.03
75188;BME280;63762;51.334;22.108;2023-04-07T06:37:10;101405.57;;;7.96;91.18
75188;BME280;63762;51.334;22.108;2023-04-07T06:47:17;101401.80;;;8.14;91.39
75188;BME280;63762;51.334;22.108;2023-04-07T06:57:24;101400.39;;;8.38;91.22
75188;BME280;63762;51.334;22.108;2023-04-07T07:07:31;101401.20;;;8.54;91.41
75188;BME280;63762;51.334;22.108;2023-04-07T07:17:38;101405.34;;;8.74;91.05
75188;BME280;63762;51.334;22.108;2023-04-07T07:27:47;101415.14;;;8.89;90.83
75188;BME280;63762;51.334;22.108;2023-04-07T07:37:53;101411.80;;;8.99;90.50
75188;BME280;63762;51.334;22.108;2023-04-07T07:48:00;101429.23;;;9.06;90.31
75188;BME280;63762;51.334;22.108;2023-04-07T07:58:07;101444.10;;;9.12;90.22
75188;BME280;63762;51.334;22.108;2023-04-07T08:08:14;101440.94;;;9.20;90.26
75188;BME280;63762;51.334;22.108;2023-04-07T08:18:21;101450.63;;;9.36;90.11
75188;BME280;63762;51.334;22.108;2023-04-07T08:28:29;101466.23;;;9.44;89.94
75188;BME280;63762;51.334;22.108;2023-04-07T08:38:36;101480.07;;;9.38;88.51
75188;BME280;63762;51.334;22.108;2023-04-07T08:48:43;101498.47;;;9.30;86.70
75188;BME280;63762;51.334;22.108;2023-04-07T08:58:50;101499.44;;;9.29;85.16
75188;BME280;63762;51.334;22.108;2023-04-07T09:08:58;101496.37;;;9.49;84.77
75188;BME280;63762;51.334;22.108;2023-04-07T09:19:04;101498.62;;;9.83;84.39
75188;BME280;63762;51.334;22.108;2023-04-07T09:29:17;101495.22;;;10.48;84.12
75188;BME280;63762;51.334;22.108;2023-04-07T09:39:19;101507.41;;;11.17;81.91
75188;BME280;63762;51.334;22.108;2023-04-07T09:49:25;101514.30;;;11.34;79.39
75188;BME280;63762;51.334;22.108;2023-04-07T09:59:35;101513.22;;;11.24;77.82
75188;BME280;63762;51.334;22.108;2023-04-07T10:09:40;101535.40;;;11.15;77.37
75188;BME280;63762;51.334;22.108;2023-04-07T10:19:47;101534.52;;;11.02;76.38
75188;BME280;63762;51.334;22.108;2023-04-07T10:29:55;101537.10;;;11.03;75.77
75188;BME280;63762;51.334;22.108;2023-04-07T10:50:19;101557.55;;;10.93;75.08
75188;BME280;63762;51.334;22.108;2023-04-07T11:00:21;101569.12;;;10.69;74.86
75188;BME280;63762;51.334;22.108;2023-04-07T11:10:22;101586.48;;;10.51;76.00
75188;BME280;63762;51.334;22.108;2023-04-07T11:20:41;101599.80;;;10.26;75.26
75188;BME280;63762;51.334;22.108;2023-04-07T11:33:50;101617.74;;;9.83;76.33
75188;BME280;63762;51.334;22.108;2023-04-07T11:44:07;101625.71;;;9.71;76.30
75188;BME280;63762;51.334;22.108;2023-04-07T11:54:08;101623.96;;;9.70;75.25
75188;BME280;63762;51.334;22.108;2023-04-07T12:04:13;101643.18;;;9.78;76.01
75188;BME280;63762;51.334;22.108;2023-04-07T12:14:17;101644.33;;;9.88;75.18
75188;BME280;63762;51.334;22.108;2023-04-07T12:24:19;101656.05;;;10.01;74.23
75188;BME280;63762;51.334;22.108;2023-04-07T12:34:26;101650.60;;;10.16;72.31
75188;BME280;63762;51.334;22.108;2023-04-07T12:44:33;101666.83;;;10.15;71.98
75188;BME280;63762;51.334;22.108;2023-04-07T12:54:40;101679.32;;;10.30;71.51
75188;BME280;63762;51.334;22.108;2023-04-07T13:04:47;101685.64;;;10.43;69.20
75188;BME280;63762;51.334;22.108;2023-04-07T13:14:54;101689.95;;;10.59;71.16
75188;BME280;63762;51.334;22.108;2023-04-07T13:25:02;101697.49;;;11.34;69.39
75188;BME280;63762;51.334;22.108;2023-04-07T13:35:09;101695.70;;;12.11;66.55
75188;BME280;63762;51.334;22.108;2023-04-07T13:45:16;101711.68;;;12.14;63.76
75188;BME280;63762;51.334;22.108;2023-04-07T13:55:23;101707.13;;;12.27;64.65
75188;BME280;63762;51.334;22.108;2023-04-07T14:05:30;101721.19;;;12.32;64.29
75188;BME280;63762;51.334;22.108;2023-04-07T14:15:37;101720.75;;;12.13;64.94
75188;BME280;63762;51.334;22.108;2023-04-07T14:25:44;101723.84;;;11.82;66.20
75188;BME280;63762;51.334;22.108;2023-04-07T14:35:52;101742.03;;;11.66;65.63
75188;BME280;63762;51.334;22.108;2023-04-07T14:45:58;101744.67;;;11.27;65.82
75188;BME280;63762;51.334;22.108;2023-04-07T14:56:06;101762.88;;;10.83;67.87
75188;BME280;63762;51.334;22.108;2023-04-07T15:06:13;101780.77;;;10.42;69.94
75188;BME280;63762;51.334;22.108;2023-04-07T15:16:20;101783.41;;;10.14;72.30
75188;BME280;63762;51.334;22.108;2023-04-07T15:26:27;101795.63;;;9.90;72.85
75188;BME280;63762;51.334;22.108;2023-04-07T15:36:34;101804.59;;;9.75;72.92
75188;BME280;63762;51.334;22.108;2023-04-07T15:46:41;101803.41;;;9.65;73.19
75188;BME280;63762;51.334;22.108;2023-04-07T15:56:48;101813.32;;;9.49;72.59
75188;BME280;63762;51.334;22.108;2023-04-07T16:06:55;101832.23;;;9.32;72.54
75188;BME280;63762;51.334;22.108;2023-04-07T16:17:03;101842.34;;;9.27;72.59
75188;BME280;63762;51.334;22.108;2023-04-07T16:27:10;101867.73;;;9.21;72.01
75188;BME280;63762;51.334;22.108;2023-04-07T16:37:18;101874.43;;;8.97;71.85
75188;BME280;63762;51.334;22.108;2023-04-07T16:47:24;101893.23;;;8.64;71.45
75188;BME280;63762;51.334;22.108;2023-04-07T16:57:31;101916.74;;;8.59;71.70
75188;BME280;63762;51.334;22.108;2023-04-07T17:07:38;101935.22;;;8.48;71.51
75188;BME280;63762;51.334;22.108;2023-04-07T17:17:45;101955.88;;;8.29;71.47
75188;BME280;63762;51.334;22.108;2023-04-07T17:27:52;101974.09;;;8.21;71.63
75188;BME280;63762;51.334;22.108;2023-04-07T17:38:00;102007.99;;;8.05;71.67
75188;BME280;63762;51.334;22.108;2023-04-07T17:48:07;102024.00;;;7.88;72.22
75188;BME280;63762;51.334;22.108;2023-04-07T17:58:14;102038.21;;;7.72;72.26
75188;BME280;63762;51.334;22.108;2023-04-07T18:08:22;102060.63;;;7.69;72.64
75188;BME280;63762;51.334;22.108;2023-04-07T18:18:28;102078.74;;;7.64;72.64
75188;BME280;63762;51.334;22.108;2023-04-07T18:28:35;102090.95;;;7.51;71.97
75188;BME280;63762;51.334;22.108;2023-04-07T18:38:43;102102.20;;;7.39;71.03
75188;BME280;63762;51.334;22.108;2023-04-07T18:48:50;102098.34;;;7.26;70.58
75188;BME280;63762;51.334;22.108;2023-04-07T18:58:57;102099.41;;;7.22;70.27
75188;BME280;63762;51.334;22.108;2023-04-07T19:09:04;102113.05;;;7.16;70.16
75188;BME280;63762;51.334;22.108;2023-04-07T19:19:12;102142.23;;;7.02;69.70
75188;BME280;63762;51.334;22.108;2023-04-07T19:29:18;102144.21;;;6.97;69.52
75188;BME280;63762;51.334;22.108;2023-04-07T19:39:26;102166.11;;;6.85;69.13
75188;BME280;63762;51.334;22.108;2023-04-07T19:49:32;102172.35;;;6.85;69.48
75188;BME280;63762;51.334;22.108;2023-04-07T19:59:40;102169.85;;;6.81;69.09
75188;BME280;63762;51.334;22.108;2023-04-07T20:09:47;102191.38;;;6.78;69.36
75188;BME280;63762;51.334;22.108;2023-04-07T20:19:54;102192.56;;;6.71;69.47
75188;BME280;63762;51.334;22.108;2023-04-07T20:30:01;102218.60;;;6.66;69.59
75188;BME280;63762;51.334;22.108;2023-04-07T20:40:09;102219.49;;;6.66;69.78
75188;BME280;63762;51.334;22.108;2023-04-07T20:50:15;102228.52;;;6.64;69.75
75188;BME280;63762;51.334;22.108;2023-04-07T21:00:22;102231.07;;;6.67;69.47
75188;BME280;63762;51.334;22.108;2023-04-07T21:10:29;102225.31;;;6.54;69.62
75188;BME280;63762;51.334;22.108;2023-04-07T21:20:37;102237.55;;;6.60;69.62
75188;BME280;63762;51.334;22.108;2023-04-07T21:30:44;102232.30;;;6.58;69.94
75188;BME280;63762;51.334;22.108;2023-04-07T21:40:51;102237.34;;;6.43;70.15
75188;BME280;63762;51.334;22.108;2023-04-07T21:50:58;102240.85;;;6.45;69.58
75188;BME280;63762;51.334;22.108;2023-04-07T22:01:05;102246.93;;;6.48;69.18
75188;BME280;63762;51.334;22.108;2023-04-07T22:11:12;102242.47;;;6.49;68.99
75188;BME280;63762;51.334;22.108;2023-04-07T22:21:19;102245.97;;;6.51;68.95
75188;BME280;63762;51.334;22.108;2023-04-07T22:31:27;102248.50;;;6.31;67.88
75188;BME280;63762;51.334;22.108;2023-04-07T22:41:34;102249.66;;;6.24;67.77
75188;BME280;63762;51.334;22.108;2023-04-07T22:51:41;102246.19;;;5.99;68.28
75188;BME280;63762;51.334;22.108;2023-04-07T23:01:48;102258.73;;;5.71;68.85
75188;BME280;63762;51.334;22.108;2023-04-07T23:11:55;102255.02;;;5.50;69.27
75188;BME280;63762;51.334;22.108;2023-04-07T23:22:02;102247.22;;;5.18;69.66
75188;BME280;63762;51.334;22.108;2023-04-07T23:32:09;102254.69;;;4.81;70.86
75188;BME280;63762;51.334;22.108;2023-04-07T23:42:17;102270.84;;;4.47;71.97
75188;BME280;63762;51.334;22.108;2023-04-07T23:52:24;102256.94;;;4.36;72.39
